sensor_id;sensor_type;location;lat;lon;timestamp;P1;durP1;ratioP1;P2;durP2;ratioP2
77854;SDS011;67046;50.088;14.336;2023-05-24T00:01:24;2.00;;;0.90;;
77854;SDS011;67046;50.088;14.336;2023-05-24T00:01:56;1.20;;;0.80;;
77854;SDS011;67046;50.088;14.336;2023-05-24T00:02:28;1.20;;;0.70;;
77854;SDS011;67046;50.088;14.336;2023-05-24T00:03:00;2.00;;;0.90;;
77854;SDS011;67046;50.088;14.336;2023-05-24T00:03:35;1.40;;;1.00;;
77854;SDS011;67046;50.088;14.336;2023-05-24T00:04:09;1.40;;;1.30;;
77854;SDS011;67046;50.088;14.336;2023-05-24T00:04:42;1.90;;;1.00;;
77854;SDS011;67046;50.088;14.336;2023-05-24T00:05:16;1.30;;;0.60;;
77854;SDS011;67046;50.088;14.336;2023-05-24T00:05:49;1.20;;;0.90;;
77854;SDS011;67046;50.088;14.336;2023-05-24T00:06:23;1.90;;;1.10;;
77854;SDS011;67046;50.088;14.336;2023-05-24T00:06:57;3.10;;;0.90;;
77854;SDS011;67046;50.088;14.336;2023-05-24T00:07:29;1.80;;;1.00;;
77854;SDS011;67046;50.088;14.336;2023-05-24T00:08:01;1.10;;;0.80;;
77854;SDS011;67046;50.088;14.336;2023-05-24T00:08:35;1.40;;;0.70;;
77854;SDS011;67046;50.088;14.336;2023-05-24T00:09:07;1.90;;;0.80;;
77854;SDS011;67046;50.088;14.336;2023-05-24T00:09:39;1.80;;;0.70;;
77854;SDS011;67046;50.088;14.336;2023-05-24T00:10:11;2.40;;;0.90;;
77854;SDS011;67046;50.088;14.336;2023-05-24T00:10:43;1.10;;;0.80;;
77854;SDS011;67046;50.088;14.336;2023-05-24T00:11:15;2.50;;;0.80;;
77854;SDS011;67046;50.088;14.336;2023-05-24T00:11:47;1.30;;;0.90;;
77854;SDS011;67046;50.088;14.336;2023-05-24T00:12:19;1.50;;;0.80;;
77854;SDS011;67046;50.088;14.336;2023-05-24T00:12:51;1.30;;;0.80;;
77854;SDS011;67046;50.088;14.336;2023-05-24T00:13:23;1.30;;;0.80;;
77854;SDS011;67046;50.088;14.336;2023-05-24T00:13:55;1.10;;;0.70;;
77854;SDS011;67046;50.088;14.336;2023-05-24T00:14:27;1.20;;;0.70;;
77854;SDS011;67046;50.088;14.336;2023-05-24T00:14:59;1.30;;;0.80;;
77854;SDS011;67046;50.088;14.336;2023-05-24T00:15:31;1.20;;;0.80;;
77854;SDS011;67046;50.088;14.336;2023-05-24T00:16:36;2.70;;;1.10;;
77854;SDS011;67046;50.088;14.336;2023-05-24T00:17:08;3.00;;;1.00;;
77854;SDS011;67046;50.088;14.336;2023-05-24T00:18:13;1.20;;;0.70;;
77854;SDS011;67046;50.088;14.336;2023-05-24T00:18:45;1.70;;;0.90;;
77854;SDS011;67046;50.088;14.336;2023-05-24T00:19:18;2.60;;;0.80;;
77854;SDS011;67046;50.088;14.336;2023-05-24T00:19:52;1.60;;;0.90;;
77854;SDS011;67046;50.088;14.336;2023-05-24T00:20:25;1.70;;;0.80;;
77854;SDS011;67046;50.088;14.336;2023-05-24T00:21:29;1.10;;;0.70;;
77854;SDS011;67046;50.088;14.336;2023-05-24T00:22:03;2.20;;;0.80;;
77854;SDS011;67046;50.088;14.336;2023-05-24T00:23:08;1.40;;;0.70;;
77854;SDS011;67046;50.088;14.336;2023-05-24T00:24:12;2.00;;;0.80;;
77854;SDS011;67046;50.088;14.336;2023-05-24T00:24:45;1.10;;;0.80;;
77854;SDS011;67046;50.088;14.336;2023-05-24T00:25:18;1.10;;;0.70;;
77854;SDS011;67046;50.088;14.336;2023-05-24T00:25:51;2.50;;;0.80;;
77854;SDS011;67046;50.088;14.336;2023-05-24T00:26:23;6.70;;;1.30;;
77854;SDS011;67046;50.088;14.336;2023-05-24T00:26:56;2.00;;;0.80;;
77854;SDS011;67046;50.088;14.336;2023-05-24T00:27:28;2.20;;;0.90;;
77854;SDS011;67046;50.088;14.336;2023-05-24T00:28:00;1.90;;;0.80;;
77854;SDS011;67046;50.088;14.336;2023-05-24T00:28:33;1.30;;;1.00;;
77854;SDS011;67046;50.088;14.336;2023-05-24T00:29:05;2.80;;;0.90;;
77854;SDS011;67046;50.088;14.336;2023-05-24T00:29:37;2.20;;;0.90;;
77854;SDS011;67046;50.088;14.336;2023-05-24T00:30:10;1.40;;;1.00;;
77854;SDS011;67046;50.088;14.336;2023-05-24T00:30:42;1.50;;;0.90;;
77854;SDS011;67046;50.088;14.336;2023-05-24T00:31:14;2.10;;;1.10;;
77854;SDS011;67046;50.088;14.336;2023-05-24T00:31:46;1.30;;;0.80;;
77854;SDS011;67046;50.088;14.336;2023-05-24T00:32:19;1.60;;;1.00;;
77854;SDS011;67046;50.088;14.336;2023-05-24T00:32:51;2.60;;;1.40;;
77854;SDS011;67046;50.088;14.336;2023-05-24T00:33:23;2.00;;;1.10;;
77854;SDS011;67046;50.088;14.336;2023-05-24T00:34:27;1.60;;;1.20;;
77854;SDS011;67046;50.088;14.336;2023-05-24T00:34:59;1.90;;;1.40;;
77854;SDS011;67046;50.088;14.336;2023-05-24T00:35:31;1.50;;;1.20;;
77854;SDS011;67046;50.088;14.336;2023-05-24T00:36:04;2.50;;;1.70;;
77854;SDS011;67046;50.088;14.336;2023-05-24T00:36:36;2.70;;;1.70;;
77854;SDS011;67046;50.088;14.336;2023-05-24T00:37:40;2.10;;;1.50;;
77854;SDS011;67046;50.088;14.336;2023-05-24T00:38:15;3.50;;;1.80;;
77854;SDS011;67046;50.088;14.336;2023-05-24T00:38:47;2.80;;;1.90;;
77854;SDS011;67046;50.088;14.336;2023-05-24T00:39:19;2.40;;;1.90;;
77854;SDS011;67046;50.088;14.336;2023-05-24T00:39:51;3.80;;;2.30;;
77854;SDS011;67046;50.088;14.336;2023-05-24T00:40:23;3.90;;;1.90;;
77854;SDS011;67046;50.088;14.336;2023-05-24T00:40:55;2.70;;;1.90;;
77854;SDS011;67046;50.088;14.336;2023-05-24T00:41:59;2.30;;;1.40;;
77854;SDS011;67046;50.088;14.336;2023-05-24T00:42:32;4.10;;;1.70;;
77854;SDS011;67046;50.088;14.336;2023-05-24T00:43:04;3.00;;;2.10;;
77854;SDS011;67046;50.088;14.336;2023-05-24T00:43:36;2.30;;;2.00;;
77854;SDS011;67046;50.088;14.336;2023-05-24T00:44:08;2.70;;;2.20;;
77854;SDS011;67046;50.088;14.336;2023-05-24T00:44:41;3.50;;;2.20;;
77854;SDS011;67046;50.088;14.336;2023-05-24T00:45:13;3.30;;;2.00;;
77854;SDS011;67046;50.088;14.336;2023-05-24T00:46:19;3.00;;;2.30;;
77854;SDS011;67046;50.088;14.336;2023-05-24T00:46:55;2.80;;;2.00;;
77854;SDS011;67046;50.088;14.336;2023-05-24T00:47:59;2.20;;;1.90;;
77854;SDS011;67046;50.088;14.336;2023-05-24T00:48:31;2.80;;;2.00;;
77854;SDS011;67046;50.088;14.336;2023-05-24T00:49:03;3.40;;;2.20;;
77854;SDS011;67046;50.088;14.336;2023-05-24T00:49:36;2.80;;;2.20;;
77854;SDS011;67046;50.088;14.336;2023-05-24T00:50:09;3.20;;;2.60;;
77854;SDS011;67046;50.088;14.336;2023-05-24T00:50:47;5.30;;;2.50;;
77854;SDS011;67046;50.088;14.336;2023-05-24T00:51:19;3.00;;;2.60;;
77854;SDS011;67046;50.088;14.336;2023-05-24T00:51:51;2.90;;;2.30;;
77854;SDS011;67046;50.088;14.336;2023-05-24T00:52:24;2.70;;;2.30;;
77854;SDS011;67046;50.088;14.336;2023-05-24T00:52:56;3.40;;;2.30;;
77854;SDS011;67046;50.088;14.336;2023-05-24T00:53:32;3.10;;;2.40;;
77854;SDS011;67046;50.088;14.336;2023-05-24T00:54:07;5.00;;;2.50;;
77854;SDS011;67046;50.088;14.336;2023-05-24T00:54:39;3.90;;;2.60;;
77854;SDS011;67046;50.088;14.336;2023-05-24T00:55:44;3.90;;;2.70;;
77854;SDS011;67046;50.088;14.336;2023-05-24T00:56:16;2.80;;;2.30;;
77854;SDS011;67046;50.088;14.336;2023-05-24T00:56:48;3.20;;;2.60;;
77854;SDS011;67046;50.088;14.336;2023-05-24T00:57:20;2.40;;;2.10;;
77854;SDS011;67046;50.088;14.336;2023-05-24T00:57:54;2.90;;;2.20;;
77854;SDS011;67046;50.088;14.336;2023-05-24T00:58:28;4.50;;;2.30;;
77854;SDS011;67046;50.088;14.336;2023-05-24T00:59:01;3.60;;;2.80;;
77854;SDS011;67046;50.088;14.336;2023-05-24T00:59:33;4.20;;;2.50;;
77854;SDS011;67046;50.088;14.336;2023-05-24T01:00:06;5.60;;;2.70;;
77854;SDS011;67046;50.088;14.336;2023-05-24T01:00:40;4.70;;;2.30;;
77854;SDS011;67046;50.088;14.336;2023-05-24T01:01:14;4.10;;;2.50;;
77854;SDS011;67046;50.088;14.336;2023-05-24T01:01:47;6.10;;;2.50;;
77854;SDS011;67046;50.088;14.336;2023-05-24T01:02:19;4.80;;;2.50;;
77854;SDS011;67046;50.088;14.336;2023-05-24T01:02:51;4.30;;;2.40;;
77854;SDS011;67046;50.088;14.336;2023-05-24T01:03:23;4.20;;;2.50;;
77854;SDS011;67046;50.088;14.336;2023-05-24T01:04:27;3.70;;;2.20;;
77854;SDS011;67046;50.088;14.336;2023-05-24T01:04:59;4.10;;;2.20;;
77854;SDS011;67046;50.088;14.336;2023-05-24T01:05:32;4.50;;;2.90;;
77854;SDS011;67046;50.088;14.336;2023-05-24T01:06:04;4.40;;;2.60;;
77854;SDS011;67046;50.088;14.336;2023-05-24T01:06:50;2.60;;;2.10;;
77854;SDS011;67046;50.088;14.336;2023-05-24T01:07:49;4.50;;;2.70;;
77854;SDS011;67046;50.088;14.336;2023-05-24T01:09:16;6.00;;;2.20;;
77854;SDS011;67046;50.088;14.336;2023-05-24T01:10:04;5.70;;;2.70;;
77854;SDS011;67046;50.088;14.336;2023-05-24T01:16:00;5.90;;;2.20;;
77854;SDS011;67046;50.088;14.336;2023-05-24T01:16:48;7.30;;;2.80;;
77854;SDS011;67046;50.088;14.336;2023-05-24T01:17:22;6.00;;;3.10;;
77854;SDS011;67046;50.088;14.336;2023-05-24T01:18:10;3.90;;;2.60;;
77854;SDS011;67046;50.088;14.336;2023-05-24T01:19:01;5.60;;;2.70;;
77854;SDS011;67046;50.088;14.336;2023-05-24T01:20:20;3.50;;;2.60;;
77854;SDS011;67046;50.088;14.336;2023-05-24T01:20:58;4.80;;;2.50;;
77854;SDS011;67046;50.088;14.336;2023-05-24T01:23:46;6.80;;;3.10;;
77854;SDS011;67046;50.088;14.336;2023-05-24T01:24:54;4.20;;;2.20;;
77854;SDS011;67046;50.088;14.336;2023-05-24T01:27:05;6.70;;;3.00;;
77854;SDS011;67046;50.088;14.336;2023-05-24T01:27:39;5.00;;;2.80;;
77854;SDS011;67046;50.088;14.336;2023-05-24T01:28:12;6.00;;;2.90;;
77854;SDS011;67046;50.088;14.336;2023-05-24T01:28:48;4.40;;;2.70;;
77854;SDS011;67046;50.088;14.336;2023-05-24T01:29:22;4.90;;;2.90;;
77854;SDS011;67046;50.088;14.336;2023-05-24T01:29:54;4.90;;;2.60;;
77854;SDS011;67046;50.088;14.336;2023-05-24T01:30:27;8.90;;;3.30;;
77854;SDS011;67046;50.088;14.336;2023-05-24T01:30:59;3.70;;;2.60;;
77854;SDS011;67046;50.088;14.336;2023-05-24T01:31:33;8.00;;;3.00;;
77854;SDS011;67046;50.088;14.336;2023-05-24T01:32:06;6.50;;;3.30;;
77854;SDS011;67046;50.088;14.336;2023-05-24T01:32:39;4.30;;;2.60;;
77854;SDS011;67046;50.088;14.336;2023-05-24T01:33:11;7.40;;;3.80;;
77854;SDS011;67046;50.088;14.336;2023-05-24T01:33:43;4.20;;;2.90;;
77854;SDS011;67046;50.088;14.336;2023-05-24T01:34:16;3.90;;;3.30;;
77854;SDS011;67046;50.088;14.336;2023-05-24T01:34:48;6.30;;;3.10;;
77854;SDS011;67046;50.088;14.336;2023-05-24T01:35:20;4.40;;;3.20;;
77854;SDS011;67046;50.088;14.336;2023-05-24T01:36:24;5.40;;;3.40;;
77854;SDS011;67046;50.088;14.336;2023-05-24T01:36:56;6.30;;;3.40;;
77854;SDS011;67046;50.088;14.336;2023-05-24T01:37:28;6.70;;;3.50;;
77854;SDS011;67046;50.088;14.336;2023-05-24T01:38:00;6.30;;;3.20;;
77854;SDS011;67046;50.088;14.336;2023-05-24T01:38:32;8.40;;;3.90;;
77854;SDS011;67046;50.088;14.336;2023-05-24T01:39:04;6.10;;;3.50;;
77854;SDS011;67046;50.088;14.336;2023-05-24T01:40:09;7.70;;;3.20;;
77854;SDS011;67046;50.088;14.336;2023-05-24T01:40:41;3.50;;;2.70;;
77854;SDS011;67046;50.088;14.336;2023-05-24T01:41:20;4.30;;;2.60;;
77854;SDS011;67046;50.088;14.336;2023-05-24T01:43:13;7.70;;;3.60;;
77854;SDS011;67046;50.088;14.336;2023-05-24T01:43:51;4.50;;;2.90;;
77854;SDS011;67046;50.088;14.336;2023-05-24T01:45:43;3.70;;;2.90;;
77854;SDS011;67046;50.088;14.336;2023-05-24T01:48:37;5.90;;;3.30;;
77854;SDS011;67046;50.088;14.336;2023-05-24T01:49:25;5.00;;;3.00;;
77854;SDS011;67046;50.088;14.336;2023-05-24T01:50:06;7.20;;;2.80;;
77854;SDS011;67046;50.088;14.336;2023-05-24T01:50:57;4.00;;;3.00;;
77854;SDS011;67046;50.088;14.336;2023-05-24T01:51:33;5.20;;;3.70;;
77854;SDS011;67046;50.088;14.336;2023-05-24T01:52:15;5.20;;;3.40;;
77854;SDS011;67046;50.088;14.336;2023-05-24T01:52:50;6.20;;;3.40;;
77854;SDS011;67046;50.088;14.336;2023-05-24T01:53:23;5.30;;;3.00;;
77854;SDS011;67046;50.088;14.336;2023-05-24T01:53:57;7.20;;;3.50;;
77854;SDS011;67046;50.088;14.336;2023-05-24T01:54:31;5.60;;;3.50;;
77854;SDS011;67046;50.088;14.336;2023-05-24T01:55:08;7.70;;;3.70;;
77854;SDS011;67046;50.088;14.336;2023-05-24T01:55:43;5.50;;;3.60;;
77854;SDS011;67046;50.088;14.336;2023-05-24T01:56:18;5.40;;;3.40;;
77854;SDS011;67046;50.088;14.336;2023-05-24T01:56:52;5.10;;;3.40;;
77854;SDS011;67046;50.088;14.336;2023-05-24T01:57:26;7.30;;;3.40;;
77854;SDS011;67046;50.088;14.336;2023-05-24T01:58:01;4.70;;;3.30;;
77854;SDS011;67046;50.088;14.336;2023-05-24T01:58:34;3.90;;;3.10;;
77854;SDS011;67046;50.088;14.336;2023-05-24T01:59:08;6.70;;;4.00;;
77854;SDS011;67046;50.088;14.336;2023-05-24T01:59:41;7.80;;;3.30;;
77854;SDS011;67046;50.088;14.336;2023-05-24T02:00:15;6.70;;;3.80;;
77854;SDS011;67046;50.088;14.336;2023-05-24T02:00:50;5.40;;;4.30;;
77854;SDS011;67046;50.088;14.336;2023-05-24T02:01:22;5.40;;;3.70;;
77854;SDS011;67046;50.088;14.336;2023-05-24T02:01:54;4.90;;;3.50;;
77854;SDS011;67046;50.088;14.336;2023-05-24T02:02:27;5.70;;;3.70;;
77854;SDS011;67046;50.088;14.336;2023-05-24T02:03:35;4.40;;;3.30;;
77854;SDS011;67046;50.088;14.336;2023-05-24T02:04:08;7.50;;;3.70;;
77854;SDS011;67046;50.088;14.336;2023-05-24T02:05:13;6.00;;;3.50;;
77854;SDS011;67046;50.088;14.336;2023-05-24T02:05:45;9.50;;;4.10;;
77854;SDS011;67046;50.088;14.336;2023-05-24T02:06:17;7.60;;;3.90;;
77854;SDS011;67046;50.088;14.336;2023-05-24T02:06:49;5.30;;;3.60;;
77854;SDS011;67046;50.088;14.336;2023-05-24T02:07:21;5.20;;;3.60;;
77854;SDS011;67046;50.088;14.336;2023-05-24T02:07:54;6.50;;;3.70;;
77854;SDS011;67046;50.088;14.336;2023-05-24T02:08:26;5.30;;;3.80;;
77854;SDS011;67046;50.088;14.336;2023-05-24T02:08:58;6.50;;;3.50;;
77854;SDS011;67046;50.088;14.336;2023-05-24T02:09:30;7.10;;;4.00;;
77854;SDS011;67046;50.088;14.336;2023-05-24T02:10:02;6.10;;;4.30;;
77854;SDS011;67046;50.088;14.336;2023-05-24T02:10:35;6.60;;;3.90;;
77854;SDS011;67046;50.088;14.336;2023-05-24T02:11:10;6.80;;;3.90;;
77854;SDS011;67046;50.088;14.336;2023-05-24T02:11:42;9.60;;;4.50;;
77854;SDS011;67046;50.088;14.336;2023-05-24T02:12:14;8.20;;;3.60;;
77854;SDS011;67046;50.088;14.336;2023-05-24T02:12:46;8.40;;;3.90;;
77854;SDS011;67046;50.088;14.336;2023-05-24T02:13:18;6.60;;;4.00;;
77854;SDS011;67046;50.088;14.336;2023-05-24T02:13:51;6.50;;;4.30;;
77854;SDS011;67046;50.088;14.336;2023-05-24T02:14:23;8.80;;;4.90;;
77854;SDS011;67046;50.088;14.336;2023-05-24T02:14:55;5.60;;;4.20;;
77854;SDS011;67046;50.088;14.336;2023-05-24T02:15:27;6.80;;;4.10;;
77854;SDS011;67046;50.088;14.336;2023-05-24T02:16:01;8.10;;;4.20;;
77854;SDS011;67046;50.088;14.336;2023-05-24T02:16:33;7.50;;;4.90;;
77854;SDS011;67046;50.088;14.336;2023-05-24T02:17:37;8.10;;;4.30;;
77854;SDS011;67046;50.088;14.336;2023-05-24T02:18:09;7.60;;;4.30;;
77854;SDS011;67046;50.088;14.336;2023-05-24T02:18:41;11.30;;;5.00;;
77854;SDS011;67046;50.088;14.336;2023-05-24T02:19:15;5.70;;;4.00;;
77854;SDS011;67046;50.088;14.336;2023-05-24T02:19:50;8.80;;;4.80;;
77854;SDS011;67046;50.088;14.336;2023-05-24T02:20:54;6.10;;;4.40;;
77854;SDS011;67046;50.088;14.336;2023-05-24T02:21:27;5.40;;;3.90;;
77854;SDS011;67046;50.088;14.336;2023-05-24T02:21:59;8.30;;;4.40;;
77854;SDS011;67046;50.088;14.336;2023-05-24T02:22:31;10.50;;;5.20;;
77854;SDS011;67046;50.088;14.336;2023-05-24T02:23:03;9.80;;;4.80;;
77854;SDS011;67046;50.088;14.336;2023-05-24T02:23:36;6.60;;;4.50;;
77854;SDS011;67046;50.088;14.336;2023-05-24T02:24:08;5.70;;;4.50;;
77854;SDS011;67046;50.088;14.336;2023-05-24T02:24:42;10.40;;;5.00;;
77854;SDS011;67046;50.088;14.336;2023-05-24T02:25:15;10.50;;;5.50;;
77854;SDS011;67046;50.088;14.336;2023-05-24T02:25:47;10.10;;;6.20;;
77854;SDS011;67046;50.088;14.336;2023-05-24T02:26:19;7.40;;;4.80;;
77854;SDS011;67046;50.088;14.336;2023-05-24T02:26:51;8.50;;;5.10;;
77854;SDS011;67046;50.088;14.336;2023-05-24T02:27:23;6.90;;;5.30;;
77854;SDS011;67046;50.088;14.336;2023-05-24T02:27:55;6.50;;;4.50;;
77854;SDS011;67046;50.088;14.336;2023-05-24T02:28:27;11.00;;;5.80;;
77854;SDS011;67046;50.088;14.336;2023-05-24T02:29:00;9.50;;;4.90;;
77854;SDS011;67046;50.088;14.336;2023-05-24T02:29:32;11.80;;;5.90;;
77854;SDS011;67046;50.088;14.336;2023-05-24T02:30:05;9.10;;;5.10;;
77854;SDS011;67046;50.088;14.336;2023-05-24T02:30:37;10.00;;;4.90;;
77854;SDS011;67046;50.088;14.336;2023-05-24T02:31:42;7.00;;;4.50;;
77854;SDS011;67046;50.088;14.336;2023-05-24T02:32:46;8.80;;;4.90;;
77854;SDS011;67046;50.088;14.336;2023-05-24T02:33:18;7.10;;;5.20;;
77854;SDS011;67046;50.088;14.336;2023-05-24T02:33:50;9.90;;;5.40;;
77854;SDS011;67046;50.088;14.336;2023-05-24T02:34:23;12.00;;;6.00;;
77854;SDS011;67046;50.088;14.336;2023-05-24T02:34:55;10.90;;;5.80;;
77854;SDS011;67046;50.088;14.336;2023-05-24T02:35:29;10.10;;;5.20;;
77854;SDS011;67046;50.088;14.336;2023-05-24T02:36:03;9.50;;;5.20;;
77854;SDS011;67046;50.088;14.336;2023-05-24T02:36:35;10.60;;;5.60;;
77854;SDS011;67046;50.088;14.336;2023-05-24T02:37:07;7.70;;;4.90;;
77854;SDS011;67046;50.088;14.336;2023-05-24T02:37:39;8.00;;;4.90;;
77854;SDS011;67046;50.088;14.336;2023-05-24T02:38:12;9.20;;;5.30;;
77854;SDS011;67046;50.088;14.336;2023-05-24T02:38:44;11.50;;;5.90;;
77854;SDS011;67046;50.088;14.336;2023-05-24T02:39:16;9.00;;;5.70;;
77854;SDS011;67046;50.088;14.336;2023-05-24T02:39:48;8.20;;;5.50;;
77854;SDS011;67046;50.088;14.336;2023-05-24T02:40:20;10.40;;;6.30;;
77854;SDS011;67046;50.088;14.336;2023-05-24T02:40:52;10.30;;;6.00;;
77854;SDS011;67046;50.088;14.336;2023-05-24T02:41:24;9.90;;;5.50;;
77854;SDS011;67046;50.088;14.336;2023-05-24T02:41:57;11.50;;;5.00;;
77854;SDS011;67046;50.088;14.336;2023-05-24T02:42:30;11.00;;;5.70;;
77854;SDS011;67046;50.088;14.336;2023-05-24T02:43:02;15.70;;;6.40;;
77854;SDS011;67046;50.088;14.336;2023-05-24T02:43:35;11.20;;;6.10;;
77854;SDS011;67046;50.088;14.336;2023-05-24T02:44:09;13.30;;;5.40;;
77854;SDS011;67046;50.088;14.336;2023-05-24T02:44:42;9.40;;;5.30;;
77854;SDS011;67046;50.088;14.336;2023-05-24T02:45:18;9.20;;;5.50;;
77854;SDS011;67046;50.088;14.336;2023-05-24T02:46:22;10.30;;;5.40;;
77854;SDS011;67046;50.088;14.336;2023-05-24T02:46:54;11.70;;;6.30;;
77854;SDS011;67046;50.088;14.336;2023-05-24T02:47:26;12.50;;;5.60;;
77854;SDS011;67046;50.088;14.336;2023-05-24T02:47:59;13.10;;;6.30;;
77854;SDS011;67046;50.088;14.336;2023-05-24T02:48:30;12.10;;;6.30;;
77854;SDS011;67046;50.088;14.336;2023-05-24T02:49:02;12.60;;;5.90;;
77854;SDS011;67046;50.088;14.336;2023-05-24T02:49:35;12.00;;;6.70;;
77854;SDS011;67046;50.088;14.336;2023-05-24T02:50:08;9.30;;;6.60;;
77854;SDS011;67046;50.088;14.336;2023-05-24T02:50:40;10.40;;;5.60;;
77854;SDS011;67046;50.088;14.336;2023-05-24T02:51:12;10.70;;;5.50;;
77854;SDS011;67046;50.088;14.336;2023-05-24T02:51:44;10.10;;;5.70;;
77854;SDS011;67046;50.088;14.336;2023-05-24T02:52:52;8.10;;;5.10;;
77854;SDS011;67046;50.088;14.336;2023-05-24T02:53:24;11.80;;;5.50;;
77854;SDS011;67046;50.088;14.336;2023-05-24T02:53:56;11.40;;;6.40;;
77854;SDS011;67046;50.088;14.336;2023-05-24T02:54:29;14.50;;;6.40;;
77854;SDS011;67046;50.088;14.336;2023-05-24T02:55:33;8.40;;;4.90;;
77854;SDS011;67046;50.088;14.336;2023-05-24T02:56:05;9.60;;;5.60;;
77854;SDS011;67046;50.088;14.336;2023-05-24T02:56:38;9.10;;;5.40;;
77854;SDS011;67046;50.088;14.336;2023-05-24T02:57:10;10.60;;;4.80;;
77854;SDS011;67046;50.088;14.336;2023-05-24T02:57:42;12.60;;;5.80;;
77854;SDS011;67046;50.088;14.336;2023-05-24T02:58:14;10.10;;;6.20;;
77854;SDS011;67046;50.088;14.336;2023-05-24T02:58:48;8.70;;;6.30;;
77854;SDS011;67046;50.088;14.336;2023-05-24T02:59:21;11.80;;;5.70;;
77854;SDS011;67046;50.088;14.336;2023-05-24T02:59:54;9.20;;;6.10;;
77854;SDS011;67046;50.088;14.336;2023-05-24T03:00:26;10.80;;;5.90;;
77854;SDS011;67046;50.088;14.336;2023-05-24T03:00:59;10.00;;;5.90;;
77854;SDS011;67046;50.088;14.336;2023-05-24T03:01:32;10.20;;;6.30;;
77854;SDS011;67046;50.088;14.336;2023-05-24T03:02:05;10.40;;;5.10;;
77854;SDS011;67046;50.088;14.336;2023-05-24T03:02:37;10.20;;;5.80;;
77854;SDS011;67046;50.088;14.336;2023-05-24T03:03:11;8.10;;;5.30;;
77854;SDS011;67046;50.088;14.336;2023-05-24T03:04:15;11.20;;;5.20;;
77854;SDS011;67046;50.088;14.336;2023-05-24T03:04:48;9.00;;;5.50;;
77854;SDS011;67046;50.088;14.336;2023-05-24T03:05:20;11.60;;;6.20;;
77854;SDS011;67046;50.088;14.336;2023-05-24T03:06:24;8.20;;;5.30;;
77854;SDS011;67046;50.088;14.336;2023-05-24T03:06:56;11.20;;;6.10;;
77854;SDS011;67046;50.088;14.336;2023-05-24T03:07:28;9.00;;;6.20;;
77854;SDS011;67046;50.088;14.336;2023-05-24T03:08:00;11.60;;;5.80;;
77854;SDS011;67046;50.088;14.336;2023-05-24T03:08:33;9.40;;;5.80;;
77854;SDS011;67046;50.088;14.336;2023-05-24T03:09:05;11.40;;;5.90;;
77854;SDS011;67046;50.088;14.336;2023-05-24T03:09:37;11.40;;;6.10;;
77854;SDS011;67046;50.088;14.336;2023-05-24T03:10:10;15.20;;;6.70;;
77854;SDS011;67046;50.088;14.336;2023-05-24T03:10:42;9.90;;;6.20;;
77854;SDS011;67046;50.088;14.336;2023-05-24T03:11:14;10.30;;;5.80;;
77854;SDS011;67046;50.088;14.336;2023-05-24T03:11:46;17.30;;;6.40;;
77854;SDS011;67046;50.088;14.336;2023-05-24T03:12:18;11.10;;;6.00;;
77854;SDS011;67046;50.088;14.336;2023-05-24T03:12:51;10.50;;;5.90;;
77854;SDS011;67046;50.088;14.336;2023-05-24T03:13:23;11.30;;;6.00;;
77854;SDS011;67046;50.088;14.336;2023-05-24T03:14:27;10.00;;;5.50;;
77854;SDS011;67046;50.088;14.336;2023-05-24T03:15:00;10.00;;;5.10;;
77854;SDS011;67046;50.088;14.336;2023-05-24T03:15:33;13.30;;;5.40;;
77854;SDS011;67046;50.088;14.336;2023-05-24T03:16:05;11.80;;;5.70;;
77854;SDS011;67046;50.088;14.336;2023-05-24T03:17:09;13.70;;;5.40;;
77854;SDS011;67046;50.088;14.336;2023-05-24T03:17:41;11.50;;;5.60;;
77854;SDS011;67046;50.088;14.336;2023-05-24T03:18:45;8.90;;;5.50;;
77854;SDS011;67046;50.088;14.336;2023-05-24T03:19:17;11.10;;;5.90;;
77854;SDS011;67046;50.088;14.336;2023-05-24T03:19:49;10.40;;;5.70;;
77854;SDS011;67046;50.088;14.336;2023-05-24T03:20:22;10.50;;;5.60;;
77854;SDS011;67046;50.088;14.336;2023-05-24T03:21:27;13.60;;;5.40;;
77854;SDS011;67046;50.088;14.336;2023-05-24T03:21:59;12.70;;;5.50;;
77854;SDS011;67046;50.088;14.336;2023-05-24T03:22:31;10.50;;;5.30;;
77854;SDS011;67046;50.088;14.336;2023-05-24T03:23:03;9.10;;;5.20;;
77854;SDS011;67046;50.088;14.336;2023-05-24T03:23:36;10.50;;;5.90;;
77854;SDS011;67046;50.088;14.336;2023-05-24T03:24:08;10.30;;;5.30;;
77854;SDS011;67046;50.088;14.336;2023-05-24T03:24:40;14.60;;;5.60;;
77854;SDS011;67046;50.088;14.336;2023-05-24T03:25:12;7.80;;;5.60;;
77854;SDS011;67046;50.088;14.336;2023-05-24T03:25:45;12.30;;;5.70;;
77854;SDS011;67046;50.088;14.336;2023-05-24T03:26:17;11.90;;;5.90;;
77854;SDS011;67046;50.088;14.336;2023-05-24T03:26:51;10.10;;;5.30;;
77854;SDS011;67046;50.088;14.336;2023-05-24T03:27:55;10.60;;;5.40;;
77854;SDS011;67046;50.088;14.336;2023-05-24T03:28:27;11.20;;;5.50;;
77854;SDS011;67046;50.088;14.336;2023-05-24T03:29:00;10.90;;;6.00;;
77854;SDS011;67046;50.088;14.336;2023-05-24T03:29:33;10.60;;;6.30;;
77854;SDS011;67046;50.088;14.336;2023-05-24T03:30:07;10.50;;;5.40;;
77854;SDS011;67046;50.088;14.336;2023-05-24T03:30:40;10.90;;;5.50;;
77854;SDS011;67046;50.088;14.336;2023-05-24T03:31:13;12.20;;;5.60;;
77854;SDS011;67046;50.088;14.336;2023-05-24T03:31:45;13.00;;;5.30;;
77854;SDS011;67046;50.088;14.336;2023-05-24T03:32:18;10.70;;;5.30;;
77854;SDS011;67046;50.088;14.336;2023-05-24T03:32:50;12.00;;;5.50;;
77854;SDS011;67046;50.088;14.336;2023-05-24T03:33:24;11.60;;;5.60;;
77854;SDS011;67046;50.088;14.336;2023-05-24T03:33:56;8.90;;;5.00;;
77854;SDS011;67046;50.088;14.336;2023-05-24T03:34:28;11.90;;;5.80;;
77854;SDS011;67046;50.088;14.336;2023-05-24T03:35:00;11.30;;;5.30;;
77854;SDS011;67046;50.088;14.336;2023-05-24T03:36:05;10.70;;;5.60;;
77854;SDS011;67046;50.088;14.336;2023-05-24T03:36:39;13.10;;;5.50;;
77854;SDS011;67046;50.088;14.336;2023-05-24T03:37:12;10.40;;;5.30;;
77854;SDS011;67046;50.088;14.336;2023-05-24T03:37:44;7.80;;;6.00;;
77854;SDS011;67046;50.088;14.336;2023-05-24T03:38:17;12.90;;;5.60;;
77854;SDS011;67046;50.088;14.336;2023-05-24T03:38:49;10.80;;;6.20;;
77854;SDS011;67046;50.088;14.336;2023-05-24T03:39:21;11.90;;;5.50;;
77854;SDS011;67046;50.088;14.336;2023-05-24T03:39:53;11.50;;;5.40;;
77854;SDS011;67046;50.088;14.336;2023-05-24T03:40:25;13.90;;;5.90;;
77854;SDS011;67046;50.088;14.336;2023-05-24T03:41:00;8.80;;;5.70;;
77854;SDS011;67046;50.088;14.336;2023-05-24T03:41:32;10.60;;;5.30;;
77854;SDS011;67046;50.088;14.336;2023-05-24T03:42:04;12.20;;;6.60;;
77854;SDS011;67046;50.088;14.336;2023-05-24T03:42:37;12.60;;;5.50;;
77854;SDS011;67046;50.088;14.336;2023-05-24T03:43:09;10.50;;;5.90;;
77854;SDS011;67046;50.088;14.336;2023-05-24T03:43:42;14.80;;;6.20;;
77854;SDS011;67046;50.088;14.336;2023-05-24T03:44:14;10.70;;;5.80;;
77854;SDS011;67046;50.088;14.336;2023-05-24T03:44:47;11.30;;;5.10;;
77854;SDS011;67046;50.088;14.336;2023-05-24T03:45:19;13.10;;;5.70;;
77854;SDS011;67046;50.088;14.336;2023-05-24T03:45:52;12.00;;;5.50;;
77854;SDS011;67046;50.088;14.336;2023-05-24T03:46:24;9.90;;;5.40;;
77854;SDS011;67046;50.088;14.336;2023-05-24T03:46:56;11.30;;;6.30;;
77854;SDS011;67046;50.088;14.336;2023-05-24T03:47:29;10.80;;;6.20;;
77854;SDS011;67046;50.088;14.336;2023-05-24T03:48:02;11.00;;;5.90;;
77854;SDS011;67046;50.088;14.336;2023-05-24T03:48:35;11.90;;;6.00;;
77854;SDS011;67046;50.088;14.336;2023-05-24T03:49:07;11.40;;;5.70;;
77854;SDS011;67046;50.088;14.336;2023-05-24T03:49:40;12.50;;;5.80;;
77854;SDS011;67046;50.088;14.336;2023-05-24T03:50:12;10.70;;;6.40;;